createdAt,value
2022-10-30T00:00:46.895Z,20.18
2022-10-30T00:03:14.719Z,20.13
2022-10-30T00:05:50.183Z,20.06
2022-10-30T00:08:19.082Z,20.04
2022-10-30T00:10:46.846Z,20.05
2022-10-30T00:13:14.126Z,20.05
2022-10-30T00:15:53.380Z,20.05
2022-10-30T00:18:20.780Z,20.06
2022-10-30T00:20:48.209Z,20.05
2022-10-30T00:23:15.088Z,20.03
2022-10-30T00:25:41.811Z,20.01
2022-10-30T00:28:08.409Z,19.97
2022-10-30T00:30:35.592Z,19.93
2022-10-30T00:33:02.245Z,19.89
2022-10-30T00:35:31.037Z,19.86
2022-10-30T00:37:57.948Z,19.84
2022-10-30T00:40:24.976Z,19.81
2022-10-30T00:42:52.237Z,19.80
2022-10-30T00:45:20.309Z,19.77
2022-10-30T00:47:54.031Z,19.73
2022-10-30T00:53:05.107Z,19.61
2022-10-30T00:55:37.734Z,19.57
2022-10-30T00:58:09.326Z,19.56
2022-10-30T01:00:40.607Z,19.55
2022-10-30T01:03:07.466Z,19.52
2022-10-30T01:05:36.183Z,19.50
2022-10-30T01:08:03.503Z,19.50
2022-10-30T01:10:30.144Z,19.48
2022-10-30T01:13:00.028Z,19.50
2022-10-30T01:15:39.239Z,19.48
2022-10-30T01:18:27.775Z,19.47
2022-10-30T01:21:38.583Z,19.41
2022-10-30T01:24:58.166Z,19.32
2022-10-30T01:27:34.164Z,19.32
2022-10-30T01:30:15.705Z,19.27
2022-10-30T01:33:00.231Z,19.25
2022-10-30T01:35:34.350Z,19.22
2022-10-30T01:38:10.516Z,19.22
2022-10-30T01:40:37.742Z,19.21
2022-10-30T01:43:05.107Z,19.19
2022-10-30T01:45:57.591Z,19.14
2022-10-30T01:48:27.064Z,19.10
2022-10-30T01:51:20.044Z,19.06
2022-10-30T01:53:58.699Z,19.03
2022-10-30T01:56:38.328Z,18.97
2022-10-30T01:59:18.306Z,18.92
2022-10-30T02:01:45.544Z,18.88
2022-10-30T02:04:14.316Z,18.83
2022-10-30T02:06:41.298Z,18.79
2022-10-30T02:09:09.339Z,18.76
2022-10-30T02:11:41.148Z,18.72
2022-10-30T02:14:10.967Z,18.65
2022-10-30T02:16:45.989Z,18.61
2022-10-30T02:19:12.530Z,18.53
2022-10-30T02:21:39.433Z,18.47
2022-10-30T02:24:10.244Z,18.44
2022-10-30T02:26:36.833Z,18.39
2022-10-30T02:29:03.448Z,18.35
2022-10-30T02:31:30.011Z,18.30
2022-10-30T02:33:56.490Z,18.24
2022-10-30T02:36:25.111Z,18.21
2022-10-30T02:38:55.071Z,18.13
2022-10-30T02:41:23.432Z,18.07
2022-10-30T02:43:51.637Z,18.04
2022-10-30T02:46:18.134Z,18.03
2022-10-30T02:48:44.713Z,18.03
2022-10-30T02:51:12.302Z,18.03
2022-10-30T02:53:39.652Z,18.00
2022-10-30T02:56:12.502Z,17.97
2022-10-30T02:58:41.415Z,17.95
2022-10-30T03:01:14.113Z,17.91
2022-10-30T03:03:41.879Z,17.86
2022-10-30T03:06:11.001Z,17.85
2022-10-30T03:08:38.220Z,17.85
2022-10-30T03:11:08.602Z,17.86
2022-10-30T03:13:36.303Z,17.85
2022-10-30T03:16:10.958Z,17.79
2022-10-30T03:18:37.635Z,17.78
2022-10-30T03:21:11.155Z,17.76
2022-10-30T03:23:38.202Z,17.75
2022-10-30T03:26:05.157Z,17.73
2022-10-30T03:28:36.295Z,17.72
2022-10-30T03:31:09.452Z,17.74
2022-10-30T03:33:37.754Z,17.73
2022-10-30T03:36:10.209Z,17.71
2022-10-30T03:38:37.977Z,17.70
2022-10-30T03:41:05.792Z,17.68
2022-10-30T03:43:32.680Z,17.67
2022-10-30T03:46:03.331Z,17.69
2022-10-30T03:48:30.638Z,17.72
2022-10-30T03:50:59.661Z,17.77
2022-10-30T03:53:28.562Z,17.79
2022-10-30T03:56:04.715Z,17.79
2022-10-30T03:58:46.631Z,17.80
2022-10-30T04:01:17.448Z,17.81
2022-10-30T04:03:47.896Z,17.82
2022-10-30T04:06:14.596Z,17.83
2022-10-30T04:08:41.194Z,17.83
2022-10-30T04:11:11.229Z,17.79
2022-10-30T04:13:38.439Z,17.76
2022-10-30T04:16:06.725Z,17.75
2022-10-30T04:18:33.819Z,17.75
2022-10-30T04:21:00.968Z,17.76
2022-10-30T04:23:29.096Z,17.76
2022-10-30T04:26:00.596Z,17.75
2022-10-30T04:28:27.259Z,17.74
2022-10-30T04:30:53.838Z,17.73
2022-10-30T04:33:20.375Z,17.73
2022-10-30T04:35:54.776Z,17.73
2022-10-30T04:38:21.375Z,17.73
2022-10-30T04:40:48.488Z,17.71
2022-10-30T04:43:15.600Z,17.69
2022-10-30T04:45:45.743Z,17.68
2022-10-30T04:48:17.631Z,17.66
2022-10-30T04:50:45.090Z,17.66
2022-10-30T04:53:19.395Z,17.65
2022-10-30T04:55:48.315Z,17.65
2022-10-30T04:58:15.139Z,17.64
2022-10-30T05:00:45.053Z,17.63
2022-10-30T05:03:20.247Z,17.63
2022-10-30T05:05:59.097Z,17.60
2022-10-30T05:08:25.812Z,17.57
2022-10-30T05:10:53.455Z,17.54
2022-10-30T05:13:20.818Z,17.49
2022-10-30T05:15:49.488Z,17.44
2022-10-30T05:18:16.504Z,17.43
2022-10-30T05:20:46.819Z,17.38
2022-10-30T05:23:13.678Z,17.35
2022-10-30T05:25:41.061Z,17.36
2022-10-30T05:28:09.869Z,17.36
2022-10-30T05:30:48.140Z,17.35
2022-10-30T05:33:34.344Z,17.35
2022-10-30T05:36:05.344Z,17.34
2022-10-30T05:38:31.819Z,17.35
2022-10-30T05:40:58.605Z,17.34
2022-10-30T05:43:25.107Z,17.33
2022-10-30T05:45:51.894Z,17.30
2022-10-30T05:48:18.398Z,17.29
2022-10-30T05:50:46.515Z,17.26
2022-10-30T05:53:21.797Z,17.26
2022-10-30T05:55:56.850Z,17.29
2022-10-30T05:58:24.781Z,17.28
2022-10-30T06:00:54.105Z,17.28
2022-10-30T06:03:34.214Z,17.27
2022-10-30T06:06:03.138Z,17.25
2022-10-30T06:08:30.927Z,17.23
2022-10-30T06:11:00.246Z,17.21
2022-10-30T06:13:34.194Z,17.20
2022-10-30T06:16:06.259Z,17.19
2022-10-30T06:18:52.643Z,17.17
2022-10-30T06:21:19.168Z,17.15
2022-10-30T06:23:50.843Z,17.14
2022-10-30T06:26:37.428Z,17.10
2022-10-30T06:29:08.972Z,17.10
2022-10-30T06:31:35.509Z,17.11
2022-10-30T06:34:05.153Z,17.12
2022-10-30T06:36:32.002Z,17.12
2022-10-30T06:38:59.468Z,17.12
2022-10-30T06:41:33.796Z,17.10
2022-10-30T06:44:25.965Z,17.10
2022-10-30T06:46:54.145Z,17.09
2022-10-30T06:49:21.131Z,17.10
2022-10-30T06:51:50.566Z,17.10
2022-10-30T06:54:42.655Z,17.08
2022-10-30T06:57:27.592Z,17.11
2022-10-30T07:00:11.969Z,17.11
2022-10-30T07:03:08.775Z,17.10
2022-10-30T07:05:35.960Z,17.09
2022-10-30T07:08:03.246Z,17.11
2022-10-30T07:10:29.856Z,17.12
2022-10-30T07:13:19.747Z,17.15
2022-10-30T07:16:27.103Z,17.15
2022-10-30T07:18:53.851Z,17.17
2022-10-30T07:21:20.349Z,17.19
2022-10-30T07:23:47.857Z,17.22
2022-10-30T07:26:26.972Z,17.25
2022-10-30T07:28:55.477Z,17.29
2022-10-30T07:31:42.282Z,17.31
2022-10-30T07:34:32.494Z,17.31
2022-10-30T07:37:29.669Z,17.29
2022-10-30T07:40:12.459Z,17.29
2022-10-30T07:43:06.232Z,17.31
2022-10-30T07:45:47.669Z,17.35
2022-10-30T07:48:29.378Z,17.41
2022-10-30T07:51:04.116Z,17.44
2022-10-30T07:53:31.311Z,17.48
2022-10-30T07:55:58.992Z,17.53
2022-10-30T07:58:48.286Z,17.57
2022-10-30T08:01:35.095Z,17.60
2022-10-30T08:04:23.169Z,17.63
2022-10-30T08:06:55.800Z,17.66
2022-10-30T08:09:22.507Z,17.71
2022-10-30T08:11:49.377Z,17.76
2022-10-30T08:14:20.916Z,17.77
2022-10-30T08:16:47.499Z,17.79
2022-10-30T08:19:14.087Z,17.82
2022-10-30T08:21:41.899Z,17.85
2022-10-30T08:24:16.220Z,17.89
2022-10-30T08:26:45.951Z,17.93
2022-10-30T08:29:13.014Z,17.94
2022-10-30T08:31:40.692Z,17.95
2022-10-30T08:34:32.430Z,17.95
2022-10-30T08:37:03.492Z,17.96
2022-10-30T08:39:30.027Z,17.98
2022-10-30T08:42:00.090Z,18.05
2022-10-30T08:44:36.146Z,18.13
2022-10-30T08:47:35.087Z,18.22
2022-10-30T08:50:01.912Z,18.28
2022-10-30T08:52:30.941Z,18.36
2022-10-30T08:54:58.885Z,18.47
2022-10-30T08:57:27.386Z,18.61
2022-10-30T08:59:56.292Z,18.77
2022-10-30T09:02:48.771Z,18.97
2022-10-30T09:05:39.487Z,19.14
2022-10-30T09:08:29.074Z,19.32
2022-10-30T09:11:22.615Z,19.47
2022-10-30T09:13:49.191Z,19.60
2022-10-30T09:16:16.636Z,19.74
2022-10-30T09:18:43.191Z,19.88
2022-10-30T09:21:10.481Z,20.03
2022-10-30T09:23:44.220Z,20.18
2022-10-30T09:26:29.627Z,20.34
2022-10-30T09:29:02.886Z,20.49
2022-10-30T09:31:47.919Z,20.65
2022-10-30T09:34:23.479Z,20.82
2022-10-30T09:36:56.414Z,20.96
2022-10-30T09:39:26.564Z,21.12
2022-10-30T09:42:23.055Z,21.33
2022-10-30T09:45:29.757Z,21.54
2022-10-30T09:48:20.831Z,21.70
2022-10-30T09:51:09.694Z,21.81
2022-10-30T09:53:51.428Z,21.94
2022-10-30T09:56:51.528Z,22.07
2022-10-30T09:59:44.688Z,22.22
2022-10-30T10:02:27.330Z,22.37
2022-10-30T10:05:00.884Z,22.56
2022-10-30T10:07:50.167Z,22.74
2022-10-30T10:10:42.290Z,22.88
2022-10-30T10:13:27.012Z,23.02
2022-10-30T10:16:04.876Z,23.17
2022-10-30T10:18:56.020Z,23.30
2022-10-30T10:21:27.920Z,23.41
2022-10-30T10:24:30.008Z,23.50
2022-10-30T10:26:59.204Z,23.59
2022-10-30T10:29:32.884Z,23.64
2022-10-30T10:32:28.060Z,23.65
2022-10-30T10:35:33.776Z,23.69
2022-10-30T10:38:37.760Z,23.79
2022-10-30T10:41:10.589Z,23.86
2022-10-30T10:44:01.332Z,23.93
2022-10-30T10:46:53.499Z,24.02
2022-10-30T10:49:43.540Z,24.12
2022-10-30T10:52:18.962Z,24.19
2022-10-30T10:55:06.196Z,24.24
2022-10-30T10:57:36.621Z,24.27
2022-10-30T11:00:13.259Z,24.31
2022-10-30T11:02:58.773Z,24.42
2022-10-30T11:05:49.727Z,24.43
2022-10-30T11:08:25.223Z,24.44
2022-10-30T11:10:57.917Z,24.44
2022-10-30T11:13:35.189Z,24.45
2022-10-30T11:16:39.482Z,24.49
2022-10-30T11:19:09.046Z,24.57
2022-10-30T11:21:43.340Z,24.65
2022-10-30T11:24:33.338Z,24.72
2022-10-30T11:27:18.602Z,24.79
2022-10-30T11:30:00.357Z,24.84
2022-10-30T11:32:30.062Z,24.88
2022-10-30T11:35:09.033Z,24.93
2022-10-30T11:37:37.932Z,24.97
2022-10-30T11:40:16.623Z,25.00
2022-10-30T11:42:51.575Z,25.10
2022-10-30T11:45:32.911Z,25.18
2022-10-30T11:48:02.800Z,25.25
2022-10-30T11:50:32.521Z,25.31
2022-10-30T11:53:11.648Z,25.40
2022-10-30T11:55:45.382Z,25.45
2022-10-30T11:58:41.009Z,25.50
2022-10-30T12:01:22.357Z,25.56
2022-10-30T12:03:49.800Z,25.67
2022-10-30T12:06:27.416Z,25.76
2022-10-30T12:09:13.887Z,25.83
2022-10-30T12:11:44.530Z,25.89
2022-10-30T12:14:22.623Z,25.93
2022-10-30T12:16:51.993Z,25.93
2022-10-30T12:19:21.377Z,25.93
2022-10-30T12:21:50.044Z,25.95
2022-10-30T12:24:36.925Z,25.97
2022-10-30T12:27:06.898Z,25.97
2022-10-30T12:30:08.067Z,25.96
2022-10-30T12:33:03.469Z,25.98
2022-10-30T12:35:55.425Z,25.97
2022-10-30T12:38:34.034Z,25.94
2022-10-30T12:41:25.278Z,25.89
2022-10-30T12:44:14.710Z,25.89
2022-10-30T12:46:59.224Z,25.86
2022-10-30T12:49:36.112Z,25.84
2022-10-30T12:52:33.521Z,25.80
2022-10-30T12:55:12.792Z,25.75
2022-10-30T12:57:45.926Z,25.69
2022-10-30T13:00:17.176Z,25.62
2022-10-30T13:02:57.130Z,25.59
2022-10-30T13:05:37.039Z,25.56
2022-10-30T13:08:17.581Z,25.53
2022-10-30T13:10:54.230Z,25.51
2022-10-30T13:13:25.979Z,25.50
2022-10-30T13:15:58.578Z,25.49
2022-10-30T13:18:27.218Z,25.49
2022-10-30T13:21:05.914Z,25.50
2022-10-30T13:23:56.004Z,25.52
2022-10-30T13:26:54.917Z,25.52
2022-10-30T13:29:41.905Z,25.55
2022-10-30T13:32:41.717Z,25.59
2022-10-30T13:35:30.065Z,25.69
2022-10-30T13:37:56.738Z,25.78
2022-10-30T13:40:35.601Z,25.85
2022-10-30T13:43:20.193Z,25.91
2022-10-30T13:46:24.160Z,25.97
2022-10-30T13:49:04.775Z,25.98
2022-10-30T13:51:34.900Z,25.95
2022-10-30T13:54:19.420Z,25.93
2022-10-30T13:56:48.224Z,25.89
2022-10-30T13:59:42.756Z,25.84
2022-10-30T14:02:24.592Z,25.77
2022-10-30T14:05:05.499Z,25.70
2022-10-30T14:07:48.266Z,25.62
2022-10-30T14:10:31.558Z,25.55
2022-10-30T14:12:58.402Z,25.49
2022-10-30T14:15:29.713Z,25.40
2022-10-30T14:18:14.355Z,25.30
2022-10-30T14:20:49.131Z,25.23
2022-10-30T14:23:19.855Z,25.17
2022-10-30T14:26:04.595Z,25.09
2022-10-30T14:28:33.662Z,25.04
2022-10-30T14:31:05.832Z,24.94
2022-10-30T14:33:46.644Z,24.86
2022-10-30T14:36:38.016Z,24.79
2022-10-30T14:39:10.646Z,24.72
2022-10-30T14:42:01.240Z,24.65
2022-10-30T14:44:41.800Z,24.59
2022-10-30T14:47:31.927Z,24.53
2022-10-30T14:50:13.317Z,24.48
2022-10-30T14:52:47.880Z,24.46
2022-10-30T14:55:28.149Z,24.45
2022-10-30T14:58:21.011Z,24.43
2022-10-30T15:00:48.297Z,24.42
2022-10-30T15:03:22.607Z,24.40
2022-10-30T15:05:55.928Z,24.39
2022-10-30T15:08:40.531Z,24.36
2022-10-30T15:11:30.140Z,24.30
2022-10-30T15:14:00.912Z,24.27
2022-10-30T15:16:29.591Z,24.21
2022-10-30T15:19:01.917Z,24.14
2022-10-30T15:21:33.357Z,24.08
2022-10-30T15:24:09.789Z,24.02
2022-10-30T15:26:40.383Z,23.98
2022-10-30T15:29:12.342Z,23.93
2022-10-30T15:31:38.802Z,23.88
2022-10-30T15:34:22.376Z,23.81
2022-10-30T15:36:48.836Z,23.73
2022-10-30T15:39:17.601Z,23.67
2022-10-30T15:41:47.681Z,23.62
2022-10-30T15:44:28.141Z,23.60
2022-10-30T15:46:56.994Z,23.59
2022-10-30T15:49:35.156Z,23.58
2022-10-30T15:52:14.984Z,23.56
2022-10-30T15:54:47.497Z,23.53
2022-10-30T16:00:19.668Z,23.43
2022-10-30T16:03:02.537Z,23.40
2022-10-30T16:05:33.436Z,23.38
2022-10-30T16:08:02.586Z,23.36
2022-10-30T16:10:35.987Z,23.34
2022-10-30T16:13:03.623Z,23.28
2022-10-30T16:15:39.150Z,23.20
2022-10-30T16:18:16.427Z,23.08
2022-10-30T16:20:47.357Z,23.02
2022-10-30T16:23:15.966Z,22.96
2022-10-30T16:25:47.424Z,22.91
2022-10-30T16:28:34.625Z,22.86
2022-10-30T16:31:04.190Z,22.80
2022-10-30T16:33:32.357Z,22.70
2022-10-30T16:36:00.037Z,22.64
2022-10-30T16:38:31.593Z,22.57
2022-10-30T16:40:58.272Z,22.52
2022-10-30T16:43:31.172Z,22.46
2022-10-30T16:46:15.034Z,22.38
2022-10-30T16:48:56.677Z,22.34
2022-10-30T16:51:23.482Z,22.31
2022-10-30T16:53:52.219Z,22.28
2022-10-30T16:56:27.615Z,22.27
2022-10-30T16:59:15.985Z,22.27
2022-10-30T17:01:46.152Z,22.26
2022-10-30T17:04:15.907Z,22.23
2022-10-30T17:06:44.567Z,22.19
2022-10-30T17:09:30.096Z,22.14
2022-10-30T17:12:26.115Z,22.07
2022-10-30T17:14:52.632Z,22.04
2022-10-30T17:17:38.040Z,22.02
2022-10-30T17:20:29.928Z,21.96
2022-10-30T17:23:16.248Z,21.92
2022-10-30T17:25:48.767Z,21.89
2022-10-30T17:28:34.092Z,21.84
2022-10-30T17:31:43.028Z,21.81
2022-10-30T17:34:20.165Z,21.81
2022-10-30T17:36:47.952Z,21.77
2022-10-30T17:39:15.379Z,21.72
2022-10-30T17:41:42.912Z,21.68
2022-10-30T17:44:19.735Z,21.62
2022-10-30T17:46:46.365Z,21.62
2022-10-30T17:49:28.892Z,21.58
2022-10-30T17:51:55.389Z,21.60
2022-10-30T17:54:23.235Z,21.59
2022-10-30T17:56:50.009Z,21.60
2022-10-30T17:59:16.841Z,21.60
2022-10-30T18:01:43.968Z,21.59
2022-10-30T18:04:20.766Z,21.58
2022-10-30T18:06:48.004Z,21.56
2022-10-30T18:09:14.654Z,21.52
2022-10-30T18:11:41.116Z,21.47
2022-10-30T18:14:10.446Z,21.39
2022-10-30T18:16:36.964Z,21.35
2022-10-30T18:19:03.447Z,21.32
2022-10-30T18:21:31.269Z,21.26
2022-10-30T18:23:57.845Z,21.19
2022-10-30T18:26:27.441Z,21.11
2022-10-30T18:28:57.095Z,21.03
2022-10-30T18:31:24.713Z,20.93
2022-10-30T18:33:51.228Z,20.85
2022-10-30T18:36:22.871Z,20.78
2022-10-30T18:38:49.807Z,20.71
2022-10-30T18:41:35.318Z,20.60
2022-10-30T18:44:01.762Z,20.52
2022-10-30T18:46:30.789Z,20.42
2022-10-30T18:48:57.550Z,20.35
2022-10-30T18:51:26.265Z,20.25
2022-10-30T18:53:53.670Z,20.17
2022-10-30T18:56:24.607Z,20.11
2022-10-30T18:58:55.011Z,20.06
2022-10-30T19:01:26.117Z,20.04
2022-10-30T19:03:52.696Z,20.04
2022-10-30T19:06:21.704Z,20.04
2022-10-30T19:08:48.333Z,20.06
2022-10-30T19:11:20.142Z,20.07
2022-10-30T19:13:51.085Z,20.07
2022-10-30T19:16:19.574Z,20.09
2022-10-30T19:18:47.320Z,20.11
2022-10-30T19:21:16.613Z,20.14
2022-10-30T19:23:43.728Z,20.17
2022-10-30T19:26:14.381Z,20.13
2022-10-30T19:28:41.521Z,20.07
2022-10-30T19:31:12.550Z,20.01
2022-10-30T19:33:39.079Z,19.97
2022-10-30T19:36:06.654Z,19.96
2022-10-30T19:38:33.590Z,19.94
2022-10-30T19:41:00.743Z,19.92
2022-10-30T19:43:27.284Z,19.92
2022-10-30T19:45:56.745Z,19.90
2022-10-30T19:48:47.650Z,19.88
2022-10-30T19:51:11.777Z,19.87
2022-10-30T19:53:39.428Z,19.83
2022-10-30T19:56:06.339Z,19.82
2022-10-30T19:58:32.799Z,19.83
2022-10-30T20:00:59.343Z,19.82
2022-10-30T20:03:25.865Z,19.79
2022-10-30T20:05:56.431Z,19.75
2022-10-30T20:08:24.851Z,19.77
2022-10-30T20:10:59.816Z,19.76
2022-10-30T20:13:27.535Z,19.76
2022-10-30T20:15:59.847Z,19.74
2022-10-30T20:18:30.291Z,19.67
2022-10-30T20:20:59.460Z,19.57
2022-10-30T20:23:26.982Z,19.53
2022-10-30T20:25:57.144Z,19.51
2022-10-30T20:28:32.475Z,19.51
2022-10-30T20:30:58.989Z,19.48
2022-10-30T20:33:26.158Z,19.48
2022-10-30T20:35:54.606Z,19.44
2022-10-30T20:38:26.404Z,19.40
2022-10-30T20:40:53.414Z,19.39
2022-10-30T20:43:24.030Z,19.39
2022-10-30T20:45:50.509Z,19.38
2022-10-30T20:48:17.031Z,19.38
2022-10-30T20:50:47.699Z,19.34
2022-10-30T20:53:16.902Z,19.30
2022-10-30T20:55:47.713Z,19.27
2022-10-30T20:58:14.216Z,19.27
2022-10-30T21:00:41.283Z,19.28
2022-10-30T21:03:08.333Z,19.29
2022-10-30T21:05:45.675Z,19.28
2022-10-30T21:08:15.611Z,19.25
2022-10-30T21:10:42.469Z,19.25
2022-10-30T21:13:10.537Z,19.26
2022-10-30T21:15:39.580Z,19.28
2022-10-30T21:18:06.152Z,19.28
2022-10-30T21:20:32.691Z,19.29
2022-10-30T21:23:00.404Z,19.24
2022-10-30T21:25:26.932Z,19.21
2022-10-30T21:27:56.379Z,19.15
2022-10-30T21:30:22.911Z,19.14
2022-10-30T21:32:49.399Z,19.13
2022-10-30T21:35:17.539Z,19.11
2022-10-30T21:37:44.054Z,19.08
2022-10-30T21:40:11.291Z,19.04
2022-10-30T21:42:37.773Z,19.00
2022-10-30T21:45:15.064Z,18.99
2022-10-30T21:47:41.504Z,18.98
2022-10-30T21:50:12.327Z,18.95
2022-10-30T21:52:39.898Z,18.93
2022-10-30T21:55:10.560Z,18.92
2022-10-30T21:57:37.005Z,18.92
2022-10-30T22:00:06.149Z,18.91
2022-10-30T22:02:34.661Z,18.91
2022-10-30T22:05:01.545Z,18.90
2022-10-30T22:07:28.198Z,18.89
2022-10-30T22:09:54.717Z,18.88
2022-10-30T22:12:21.200Z,18.86
2022-10-30T22:14:48.672Z,18.87
2022-10-30T22:17:15.144Z,18.87
2022-10-30T22:19:41.676Z,18.85
2022-10-30T22:22:09.295Z,18.81
2022-10-30T22:24:39.964Z,18.79
2022-10-30T22:27:06.611Z,18.79
2022-10-30T22:29:33.109Z,18.79
2022-10-30T22:31:59.547Z,18.78
2022-10-30T22:34:30.276Z,18.76
2022-10-30T22:36:56.788Z,18.73
2022-10-30T22:39:23.300Z,18.72
2022-10-30T22:41:49.781Z,18.71
2022-10-30T22:44:19.628Z,18.68
2022-10-30T22:46:46.415Z,18.65
2022-10-30T22:49:12.863Z,18.63
2022-10-30T22:51:39.703Z,18.64
2022-10-30T22:54:13.093Z,18.65
2022-10-30T22:56:40.580Z,18.67
2022-10-30T22:59:10.866Z,18.66
2022-10-30T23:01:39.007Z,18.67
2022-10-30T23:04:08.907Z,18.67
2022-10-30T23:06:35.946Z,18.68
2022-10-30T23:09:05.373Z,18.67
2022-10-30T23:11:33.076Z,18.68
2022-10-30T23:13:59.530Z,18.67
2022-10-30T23:16:26.912Z,18.65
2022-10-30T23:18:58.112Z,18.62
2022-10-30T23:21:30.458Z,18.60
2022-10-30T23:23:57.991Z,18.61
2022-10-30T23:26:31.163Z,18.60
2022-10-30T23:28:58.766Z,18.60
2022-10-30T23:31:37.356Z,18.59
2022-10-30T23:34:09.838Z,18.58
2022-10-30T23:36:37.074Z,18.56
2022-10-30T23:39:06.537Z,18.53
2022-10-30T23:41:36.385Z,18.50
2022-10-30T23:44:22.831Z,18.49
2022-10-30T23:46:49.277Z,18.47
2022-10-30T23:49:15.745Z,18.43
2022-10-30T23:51:42.206Z,18.40
2022-10-30T23:54:33.843Z,18.35
2022-10-30T23:57:00.307Z,18.32
2022-10-30T23:59:26.780Z,18.28
